createdAt,value
2019-05-10T00:00:09.907Z,10.73
2019-05-10T00:02:56.733Z,7.40
2019-05-10T00:05:43.662Z,7.73
2019-05-10T00:08:30.539Z,11.60
2019-05-10T00:11:13.732Z,9.40
2019-05-10T00:13:46.184Z,6.43
2019-05-10T00:16:15.211Z,6.70
2019-05-10T00:18:44.241Z,7.20
2019-05-10T00:21:13.383Z,4.80
2019-05-10T00:23:42.456Z,7.80
2019-05-10T00:26:11.538Z,6.43
2019-05-10T00:28:40.638Z,4.53
2019-05-10T00:31:09.795Z,4.80
2019-05-10T00:33:39.081Z,8.27
2019-05-10T00:36:08.407Z,7.23
2019-05-10T00:38:37.560Z,5.53
2019-05-10T00:41:06.860Z,5.63
2019-05-10T00:43:35.971Z,5.50
2019-05-10T00:46:05.173Z,7.70
2019-05-10T00:48:34.570Z,6.47
2019-05-10T00:51:03.676Z,6.00
2019-05-10T00:53:32.727Z,8.40
2019-05-10T00:56:01.753Z,5.73
2019-05-10T00:58:30.827Z,8.77
2019-05-10T01:01:01.613Z,7.40
2019-05-10T01:03:30.668Z,7.93
2019-05-10T01:05:59.729Z,7.13
2019-05-10T01:08:28.778Z,6.70
2019-05-10T01:10:57.892Z,6.07
2019-05-10T01:13:27.007Z,7.00
2019-05-10T01:15:56.056Z,7.80
2019-05-10T01:18:25.110Z,8.73
2019-05-10T01:20:54.176Z,6.90
2019-05-10T01:23:23.196Z,6.87
2019-05-10T01:25:52.249Z,7.70
2019-05-10T01:28:21.338Z,7.03
2019-05-10T01:30:50.412Z,8.17
2019-05-10T01:33:19.531Z,7.20
2019-05-10T01:35:48.629Z,5.63
2019-05-10T01:38:17.507Z,8.37
2019-05-10T01:40:46.629Z,6.17
2019-05-10T01:43:15.519Z,5.47
2019-05-10T01:45:44.369Z,6.57
2019-05-10T01:48:13.380Z,5.30
2019-05-10T01:50:42.425Z,4.90
2019-05-10T01:53:11.455Z,4.80
2019-05-10T01:55:51.399Z,5.33
2019-05-10T01:58:11.173Z,5.03
2019-05-10T02:00:40.159Z,8.60
2019-05-10T02:03:09.164Z,6.17
2019-05-10T02:05:38.207Z,5.07
2019-05-10T02:08:07.210Z,7.53
2019-05-10T02:10:36.123Z,4.70
2019-05-10T02:13:05.196Z,7.53
2019-05-10T02:15:34.121Z,6.07
2019-05-10T02:18:03.211Z,5.13
2019-05-10T02:20:32.386Z,5.80
2019-05-10T02:23:01.463Z,6.03
2019-05-10T02:25:30.522Z,5.40
2019-05-10T02:27:59.573Z,5.33
2019-05-10T02:30:28.617Z,9.93
2019-05-10T02:32:57.593Z,9.07
2019-05-10T02:35:26.622Z,6.00
2019-05-10T02:37:55.583Z,5.53
2019-05-10T02:40:24.607Z,6.20
2019-05-10T02:42:53.664Z,7.97
2019-05-10T02:45:22.529Z,5.40
2019-05-10T02:47:51.558Z,8.43
2019-05-10T02:50:20.601Z,8.60
2019-05-10T02:52:49.680Z,5.60
2019-05-10T02:55:18.670Z,5.37
2019-05-10T02:57:47.608Z,7.27
2019-05-10T03:00:16.704Z,6.70
2019-05-10T03:02:45.613Z,7.60
2019-05-10T03:05:14.563Z,8.17
2019-05-10T03:07:43.494Z,6.53
2019-05-10T03:10:12.374Z,7.53
2019-05-10T03:12:41.881Z,10.87
2019-05-10T03:15:12.285Z,10.00
2019-05-10T03:17:41.580Z,8.83
2019-05-10T03:20:10.623Z,7.80
2019-05-10T03:22:42.868Z,6.00
2019-05-10T03:25:12.230Z,6.20
2019-05-10T03:27:41.201Z,8.20
2019-05-10T03:30:10.317Z,7.13
2019-05-10T03:32:39.342Z,7.07
2019-05-10T03:35:08.954Z,9.77
2019-05-10T03:37:37.927Z,9.23
2019-05-10T03:40:08.083Z,6.57
2019-05-10T03:42:37.117Z,9.00
2019-05-10T03:45:06.811Z,8.13
2019-05-10T03:47:35.824Z,9.27
2019-05-10T03:50:05.636Z,10.37
2019-05-10T03:52:34.723Z,8.53
2019-05-10T03:55:03.860Z,8.60
2019-05-10T03:57:32.887Z,9.97
2019-05-10T04:00:03.141Z,13.53
2019-05-10T04:02:32.208Z,15.07
2019-05-10T04:05:01.207Z,11.10
2019-05-10T04:07:30.201Z,11.67
2019-05-10T04:09:59.387Z,10.27
2019-05-10T04:12:28.367Z,8.00
2019-05-10T04:14:57.347Z,9.03
2019-05-10T04:17:26.292Z,9.40
2019-05-10T04:19:55.136Z,9.90
2019-05-10T04:22:24.201Z,10.27
2019-05-10T04:24:53.271Z,10.70
2019-05-10T04:27:32.512Z,12.07
2019-05-10T04:29:52.919Z,9.83
2019-05-10T04:32:21.807Z,11.30
2019-05-10T04:34:50.888Z,13.67
2019-05-10T04:37:19.979Z,10.23
2019-05-10T04:39:49.006Z,11.70
2019-05-10T04:42:17.992Z,11.10
2019-05-10T04:44:47.240Z,13.50
2019-05-10T04:47:16.265Z,11.73
2019-05-10T04:49:45.320Z,12.60
2019-05-10T04:52:14.446Z,12.87
2019-05-10T04:54:43.877Z,10.93
2019-05-10T04:57:12.895Z,12.27
2019-05-10T04:59:41.933Z,11.83
2019-05-10T05:02:10.812Z,10.10
2019-05-10T05:04:39.838Z,12.43
2019-05-10T05:07:08.999Z,12.53
2019-05-10T05:09:38.089Z,12.90
2019-05-10T05:12:07.091Z,11.97
2019-05-10T05:14:36.142Z,16.07
2019-05-10T05:17:05.207Z,16.17
2019-05-10T05:19:34.204Z,16.77
2019-05-10T05:22:03.337Z,15.00
2019-05-10T05:24:32.293Z,17.20
2019-05-10T05:27:01.393Z,14.23
2019-05-10T05:29:30.293Z,14.43
2019-05-10T05:32:01.141Z,18.43
2019-05-10T05:34:30.082Z,15.07
2019-05-10T05:36:59.195Z,14.77
2019-05-10T05:39:28.221Z,17.63
2019-05-10T05:41:57.214Z,20.10
2019-05-10T05:44:27.845Z,17.40
2019-05-10T05:46:56.957Z,16.37
2019-05-10T05:49:26.032Z,20.17
2019-05-10T05:51:55.046Z,17.23
2019-05-10T05:54:24.107Z,17.13
2019-05-10T05:56:53.341Z,19.10
2019-05-10T05:59:25.945Z,18.57
2019-05-10T06:01:53.065Z,19.57
2019-05-10T06:04:22.105Z,18.33
2019-05-10T06:06:53.892Z,16.00
2019-05-10T06:09:21.957Z,20.97
2019-05-10T06:11:50.935Z,15.17
2019-05-10T06:14:19.928Z,16.07
2019-05-10T06:16:51.150Z,14.73
2019-05-10T06:19:28.775Z,15.80
2019-05-10T06:21:50.715Z,14.03
2019-05-10T06:24:19.636Z,22.90
2019-05-10T06:26:48.674Z,14.63
2019-05-10T06:29:19.660Z,13.77
2019-05-10T06:31:48.346Z,15.00
2019-05-10T06:34:17.404Z,16.97
2019-05-10T06:36:46.388Z,16.87
2019-05-10T06:39:15.376Z,14.57
2019-05-10T06:41:44.240Z,14.10
2019-05-10T06:44:13.248Z,16.87
2019-05-10T06:46:42.264Z,16.87
2019-05-10T06:49:11.378Z,15.97
2019-05-10T06:51:43.098Z,15.43
2019-05-10T06:54:11.152Z,18.87
2019-05-10T06:56:40.271Z,19.43
2019-05-10T06:59:13.579Z,15.83
2019-05-10T07:01:45.796Z,18.87
2019-05-10T07:04:11.015Z,15.83
2019-05-10T07:06:40.075Z,15.83
2019-05-10T07:09:09.188Z,16.33
2019-05-10T07:11:38.322Z,15.53
2019-05-10T07:14:07.429Z,16.27
2019-05-10T07:16:36.576Z,16.13
2019-05-10T07:19:05.663Z,15.80
2019-05-10T07:21:38.885Z,18.37
2019-05-10T07:24:05.648Z,16.27
2019-05-10T07:26:34.705Z,17.80
2019-05-10T07:29:03.666Z,15.60
2019-05-10T07:31:32.594Z,16.57
2019-05-10T07:34:01.662Z,14.03
2019-05-10T07:36:31.039Z,15.30
2019-05-10T07:39:02.894Z,14.70
2019-05-10T07:41:31.385Z,16.07
2019-05-10T07:44:07.586Z,13.93
2019-05-10T07:46:31.277Z,14.43
2019-05-10T07:49:00.400Z,12.80
2019-05-10T07:51:30.339Z,13.33
2019-05-10T07:54:04.593Z,14.87
2019-05-10T07:56:30.773Z,14.20
2019-05-10T07:59:00.655Z,16.57
2019-05-10T08:01:32.721Z,14.73
2019-05-10T08:04:00.877Z,14.83
2019-05-10T08:06:31.971Z,13.73
2019-05-10T08:09:06.139Z,14.27
2019-05-10T08:11:31.635Z,13.47
2019-05-10T08:14:06.159Z,11.80
2019-05-10T08:16:31.495Z,11.10
2019-05-10T08:19:02.240Z,11.07
2019-05-10T08:21:32.230Z,10.37
2019-05-10T08:24:05.164Z,12.33
2019-05-10T08:26:32.825Z,12.20
2019-05-10T08:29:02.298Z,11.47
2019-05-10T08:31:40.196Z,10.97
2019-05-10T08:34:02.312Z,11.23
2019-05-10T08:36:32.190Z,18.13
2019-05-10T08:39:10.005Z,13.40
2019-05-10T08:41:33.395Z,11.40
2019-05-10T08:44:04.883Z,11.70
2019-05-10T08:46:41.012Z,11.93
2019-05-10T08:49:04.169Z,11.53
2019-05-10T08:51:34.552Z,13.27
2019-05-10T08:54:03.698Z,12.47
2019-05-10T08:56:33.416Z,11.97
2019-05-10T08:59:03.854Z,11.57
2019-05-10T09:01:44.352Z,12.23
2019-05-10T09:04:06.776Z,12.17
2019-05-10T09:06:35.072Z,11.47
2019-05-10T09:09:08.500Z,11.10
2019-05-10T09:11:37.652Z,12.90
2019-05-10T09:14:06.673Z,10.77
2019-05-10T09:16:43.275Z,12.03
2019-05-10T09:19:06.604Z,10.80
2019-05-10T09:21:35.849Z,12.50
2019-05-10T09:24:06.779Z,11.10
2019-05-10T09:26:35.907Z,10.23
2019-05-10T09:29:05.299Z,10.67
2019-05-10T09:31:34.393Z,10.37
2019-05-10T09:34:03.510Z,10.30
2019-05-10T09:36:36.162Z,10.37
2019-05-10T09:39:09.191Z,10.87
2019-05-10T09:41:38.385Z,12.53
2019-05-10T09:44:07.135Z,10.23
2019-05-10T09:46:36.214Z,10.90
2019-05-10T09:49:14.567Z,12.43
2019-05-10T09:51:36.116Z,12.33
2019-05-10T09:54:07.445Z,16.27
2019-05-10T09:56:42.338Z,12.70
2019-05-10T09:59:08.247Z,12.33
2019-05-10T10:01:39.007Z,13.53
2019-05-10T10:04:08.130Z,14.23
2019-05-10T10:06:41.947Z,12.63
2019-05-10T10:09:11.212Z,13.47
2019-05-10T10:11:40.452Z,13.07
2019-05-10T10:14:10.141Z,13.77
2019-05-10T10:16:49.385Z,13.10
2019-05-10T10:19:12.189Z,14.90
2019-05-10T10:21:43.307Z,13.53
2019-05-10T10:24:17.418Z,13.10
2019-05-10T10:26:43.415Z,15.17
2019-05-10T10:29:12.372Z,12.50
2019-05-10T10:31:51.160Z,11.37
2019-05-10T10:34:12.388Z,11.93
2019-05-10T10:36:43.920Z,12.30
2019-05-10T10:39:12.142Z,12.57
2019-05-10T10:41:41.251Z,11.97
2019-05-10T10:44:10.298Z,12.00
2019-05-10T10:46:39.421Z,12.50
2019-05-10T10:49:10.566Z,11.70
2019-05-10T10:51:39.297Z,12.03
2019-05-10T10:54:08.396Z,11.20
2019-05-10T10:56:37.997Z,12.83
2019-05-10T10:59:07.588Z,14.50
2019-05-10T11:01:48.940Z,12.53
2019-05-10T11:04:08.512Z,11.70
2019-05-10T11:06:38.942Z,11.40
2019-05-10T11:09:08.686Z,10.47
2019-05-10T11:11:39.281Z,10.67
2019-05-10T11:14:10.871Z,9.07
2019-05-10T11:16:41.331Z,8.70
2019-05-10T11:19:15.896Z,9.57
2019-05-10T11:21:45.101Z,9.00
2019-05-10T11:24:17.915Z,9.83
2019-05-10T11:26:47.206Z,9.10
2019-05-10T11:29:25.314Z,7.60
2019-05-10T11:31:53.500Z,8.03
2019-05-10T11:34:18.044Z,7.77
2019-05-10T11:36:48.338Z,7.97
2019-05-10T11:39:26.082Z,7.77
2019-05-10T11:41:52.842Z,7.17
2019-05-10T11:44:21.466Z,8.60
2019-05-10T11:46:50.816Z,7.83
2019-05-10T11:49:20.435Z,8.27
2019-05-10T11:51:54.726Z,8.13
2019-05-10T11:54:21.692Z,9.47
2019-05-10T11:56:52.355Z,9.27
2019-05-10T11:59:21.950Z,8.87
2019-05-10T12:01:57.842Z,7.97
2019-05-10T12:04:36.238Z,7.67
2019-05-10T12:06:55.450Z,7.07
2019-05-10T12:09:24.651Z,6.77
2019-05-10T12:11:56.828Z,6.67
2019-05-10T12:14:24.625Z,7.33
2019-05-10T12:16:54.521Z,6.20
2019-05-10T12:19:23.953Z,6.50
2019-05-10T12:21:55.991Z,7.10
2019-05-10T12:26:18.653Z,7.40
2019-05-10T12:29:25.165Z,6.63
2019-05-10T12:31:57.008Z,6.80
2019-05-10T12:34:24.814Z,7.30
2019-05-10T12:36:57.470Z,8.63
2019-05-10T12:39:25.031Z,8.23
2019-05-10T12:41:54.140Z,8.47
2019-05-10T12:44:26.195Z,6.83
2019-05-10T12:46:55.428Z,7.17
2019-05-10T12:49:24.567Z,6.93
2019-05-10T12:51:53.730Z,6.67
2019-05-10T12:54:23.695Z,6.70
2019-05-10T12:56:53.913Z,6.03
2019-05-10T12:59:23.161Z,8.03
2019-05-10T13:01:52.413Z,8.50
2019-05-10T13:04:27.597Z,6.30
2019-05-10T13:06:54.856Z,6.60
2019-05-10T13:09:37.934Z,6.63
2019-05-10T13:12:06.095Z,6.93
2019-05-10T13:14:29.188Z,6.40
2019-05-10T13:17:09.771Z,6.83
2019-05-10T13:19:35.127Z,6.63
2019-05-10T13:22:07.360Z,6.93
2019-05-10T13:24:35.107Z,6.37
2019-05-10T13:27:04.249Z,7.30
2019-05-10T13:29:33.268Z,6.83
2019-05-10T13:32:02.339Z,7.40
2019-05-10T13:34:31.365Z,7.70
2019-05-10T13:37:00.498Z,6.47
2019-05-10T13:39:29.651Z,5.50
2019-05-10T13:42:03.439Z,5.43
2019-05-10T13:44:30.367Z,5.60
2019-05-10T13:46:59.544Z,5.27
2019-05-10T13:49:28.678Z,4.83
2019-05-10T13:51:57.593Z,5.93
2019-05-10T13:54:31.146Z,5.37
2019-05-10T13:56:57.487Z,6.80
2019-05-10T13:59:26.691Z,5.63
2019-05-10T14:01:55.717Z,6.90
2019-05-10T14:04:24.740Z,5.93
2019-05-10T14:06:53.781Z,5.20
2019-05-10T14:09:23.017Z,5.90
2019-05-10T14:11:52.128Z,6.93
2019-05-10T14:14:26.278Z,5.83
2019-05-10T14:16:52.082Z,5.63
2019-05-10T14:19:22.807Z,5.80
2019-05-10T14:21:52.180Z,5.33
2019-05-10T14:24:22.362Z,8.27
2019-05-10T14:26:56.726Z,4.90
2019-05-10T14:29:32.961Z,4.43
2019-05-10T14:31:53.333Z,4.67
2019-05-10T14:34:22.434Z,5.50
2019-05-10T14:36:51.542Z,5.40
2019-05-10T14:39:20.634Z,5.20
2019-05-10T14:41:50.839Z,4.57
2019-05-10T14:44:20.597Z,5.37
2019-05-10T14:46:49.798Z,5.33
2019-05-10T14:49:18.867Z,7.17
2019-05-10T14:51:58.464Z,4.73
2019-05-10T14:54:18.633Z,5.13
2019-05-10T14:56:47.641Z,4.47
2019-05-10T14:59:16.528Z,5.87
2019-05-10T15:01:45.878Z,4.80
2019-05-10T15:04:20.163Z,4.73
2019-05-10T15:06:45.980Z,5.70
2019-05-10T15:09:21.736Z,7.27
2019-05-10T15:11:45.792Z,5.80
2019-05-10T15:14:14.783Z,5.97
2019-05-10T15:16:43.861Z,5.40
2019-05-10T15:19:12.868Z,5.67
2019-05-10T15:21:41.947Z,5.17
2019-05-10T15:24:10.908Z,5.23
2019-05-10T15:26:43.733Z,4.70
2019-05-10T15:29:19.550Z,5.27
2019-05-10T15:31:41.430Z,4.47
2019-05-10T15:34:10.456Z,4.83
2019-05-10T15:36:39.511Z,4.90
2019-05-10T15:39:08.489Z,4.80
2019-05-10T15:41:37.555Z,5.70
2019-05-10T15:44:06.577Z,5.60
2019-05-10T15:46:41.750Z,5.90
2019-05-10T15:49:06.360Z,5.87
2019-05-10T15:51:36.723Z,6.80
2019-05-10T15:54:07.448Z,6.70
2019-05-10T15:56:41.364Z,7.20
2019-05-10T15:59:07.493Z,7.20
2019-05-10T16:01:36.794Z,7.60
2019-05-10T16:04:06.700Z,6.87
2019-05-10T16:06:37.844Z,7.60
2019-05-10T16:09:16.792Z,6.43
2019-05-10T16:11:38.123Z,7.23
2019-05-10T16:14:07.174Z,6.97
2019-05-10T16:16:37.676Z,6.47
2019-05-10T16:19:07.031Z,6.23
2019-05-10T16:21:36.054Z,7.00
2019-05-10T16:24:05.116Z,6.57
2019-05-10T16:26:34.146Z,5.80
2019-05-10T16:29:03.515Z,6.33
2019-05-10T16:31:32.941Z,6.60
2019-05-10T16:34:01.992Z,5.50
2019-05-10T16:36:30.966Z,5.43
2019-05-10T16:39:01.774Z,6.43
2019-05-10T16:41:30.572Z,6.13
2019-05-10T16:44:00.192Z,8.23
2019-05-10T16:46:29.383Z,5.20
2019-05-10T16:48:58.351Z,5.53
2019-05-10T16:51:27.315Z,6.07
2019-05-10T16:53:56.253Z,5.47
2019-05-10T16:56:24.195Z,6.47
2019-05-10T16:58:54.982Z,4.90
2019-05-10T17:01:27.443Z,4.10
2019-05-10T17:03:59.975Z,4.40
2019-05-10T17:06:25.437Z,4.27
2019-05-10T17:08:54.414Z,4.50
2019-05-10T17:11:23.467Z,4.00
2019-05-10T17:13:55.512Z,6.97
2019-05-10T17:16:23.188Z,7.43
2019-05-10T17:18:55.277Z,5.33
2019-05-10T17:21:22.982Z,5.03
2019-05-10T17:23:52.040Z,4.57
2019-05-10T17:26:21.013Z,4.47
2019-05-10T17:28:49.923Z,4.17
2019-05-10T17:31:19.264Z,4.87
2019-05-10T17:33:48.295Z,4.47
2019-05-10T17:36:20.022Z,4.63
2019-05-10T17:38:53.718Z,4.67
2019-05-10T17:41:19.568Z,4.67
2019-05-10T17:43:49.529Z,4.97
2019-05-10T17:46:20.663Z,4.83
2019-05-10T17:48:49.558Z,5.20
2019-05-10T17:51:18.569Z,4.60
2019-05-10T17:53:47.603Z,5.07
2019-05-10T17:56:16.557Z,5.30
2019-05-10T17:58:45.613Z,6.10
2019-05-10T18:01:14.534Z,5.13
2019-05-10T18:03:43.401Z,5.50
2019-05-10T18:06:23.726Z,5.27
2019-05-10T18:08:43.105Z,6.27
2019-05-10T18:11:12.091Z,6.20
2019-05-10T18:13:42.508Z,6.50
2019-05-10T18:16:11.620Z,5.23
2019-05-10T18:18:46.094Z,5.63
2019-05-10T18:21:15.838Z,6.00
2019-05-10T18:23:41.905Z,6.43
2019-05-10T18:26:10.751Z,6.40
2019-05-10T18:28:39.665Z,6.07
2019-05-10T18:31:08.810Z,6.03
2019-05-10T18:33:37.805Z,6.20
2019-05-10T18:36:06.796Z,5.77
2019-05-10T18:38:37.238Z,6.23
2019-05-10T18:41:09.989Z,6.80
2019-05-10T18:43:40.651Z,7.00
2019-05-10T18:46:08.008Z,5.93
2019-05-10T18:48:36.973Z,6.17
2019-05-10T18:51:05.856Z,6.87
2019-05-10T18:53:34.850Z,6.07
2019-05-10T18:56:03.798Z,6.80
2019-05-10T18:58:32.878Z,6.53
2019-05-10T19:01:02.578Z,9.50
2019-05-10T19:03:33.696Z,6.87
2019-05-10T19:06:04.046Z,7.77
2019-05-10T19:09:10.888Z,5.90
2019-05-10T19:11:40.967Z,5.50
2019-05-10T19:14:10.289Z,5.63
2019-05-10T19:16:45.625Z,6.07
2019-05-10T19:19:14.613Z,5.60
2019-05-10T19:22:17.654Z,6.23
2019-05-10T19:24:45.685Z,6.27
2019-05-10T19:27:15.825Z,6.50
2019-05-10T19:29:46.120Z,7.17
2019-05-10T19:32:18.064Z,7.27
2019-05-10T19:34:48.303Z,6.43
2019-05-10T19:37:28.846Z,6.57
2019-05-10T19:39:47.863Z,6.77
2019-05-10T19:42:16.885Z,7.77
2019-05-10T19:44:45.851Z,9.27
2019-05-10T19:47:17.576Z,17.10
2019-05-10T19:49:51.217Z,7.40
2019-05-10T19:52:21.366Z,8.20
2019-05-10T19:54:47.092Z,8.17
2019-05-10T19:57:18.793Z,9.30
2019-05-10T19:59:48.720Z,6.97
2019-05-10T20:02:17.361Z,6.17
2019-05-10T20:04:46.360Z,6.53
2019-05-10T20:07:15.322Z,7.03
2019-05-10T20:09:44.981Z,7.40
2019-05-10T20:12:13.969Z,6.73
2019-05-10T20:14:42.952Z,6.53
2019-05-10T20:17:12.176Z,5.67
2019-05-10T20:19:41.351Z,5.73
2019-05-10T20:22:10.350Z,6.03
2019-05-10T20:24:39.388Z,6.47
2019-05-10T20:27:08.347Z,6.27
2019-05-10T20:29:37.308Z,8.27
2019-05-10T20:32:06.307Z,7.23
2019-05-10T20:34:35.423Z,7.07
2019-05-10T20:37:04.463Z,6.63
2019-05-10T20:39:33.515Z,7.23
2019-05-10T20:42:02.531Z,7.47
2019-05-10T20:44:31.591Z,7.50
2019-05-10T20:47:00.563Z,8.40
2019-05-10T20:49:29.573Z,7.97
2019-05-10T20:51:58.503Z,7.87
2019-05-10T20:54:27.371Z,7.70
2019-05-10T20:56:56.312Z,6.77
2019-05-10T20:59:25.346Z,6.80
2019-05-10T21:01:54.305Z,7.93
2019-05-10T21:04:23.365Z,7.50
2019-05-10T21:06:52.348Z,8.23
2019-05-10T21:09:21.323Z,8.77
2019-05-10T21:11:50.435Z,9.17
2019-05-10T21:14:19.339Z,8.37
2019-05-10T21:16:48.276Z,8.10
2019-05-10T21:19:19.877Z,7.70
2019-05-10T21:21:47.833Z,7.77
2019-05-10T21:24:16.678Z,7.10
2019-05-10T21:26:45.554Z,8.40
2019-05-10T21:29:14.451Z,8.80
2019-05-10T21:31:43.348Z,8.67
2019-05-10T21:34:12.333Z,9.80
2019-05-10T21:36:41.239Z,9.30
2019-05-10T21:39:10.123Z,8.27
2019-05-10T21:41:39.019Z,9.47
2019-05-10T21:44:08.006Z,10.23
2019-05-10T21:46:36.983Z,9.43
2019-05-10T21:49:09.327Z,9.87
2019-05-10T21:51:38.359Z,9.60
2019-05-10T21:54:07.382Z,10.20
2019-05-10T21:56:37.354Z,9.43
2019-05-10T21:59:06.773Z,9.97
2019-05-10T22:01:36.496Z,9.17
2019-05-10T22:04:05.476Z,9.80
2019-05-10T22:06:34.507Z,9.80
2019-05-10T22:09:05.084Z,10.83
2019-05-10T22:11:34.209Z,9.70
2019-05-10T22:14:03.341Z,9.27
2019-05-10T22:16:32.480Z,10.17
2019-05-10T22:19:04.849Z,10.23
2019-05-10T22:21:34.008Z,11.10
2019-05-10T22:24:03.049Z,9.97
2019-05-10T22:26:32.454Z,10.77
2019-05-10T22:29:02.206Z,10.70
2019-05-10T22:31:31.276Z,10.77
2019-05-10T22:34:00.313Z,10.13
2019-05-10T22:36:29.391Z,9.47
2019-05-10T22:39:06.973Z,9.57
2019-05-10T22:41:29.515Z,8.37
2019-05-10T22:43:58.625Z,12.27
2019-05-10T22:46:27.714Z,9.57
2019-05-10T22:48:56.782Z,10.83
2019-05-10T22:51:25.905Z,10.93
2019-05-10T22:54:00.093Z,10.17
2019-05-10T22:56:26.506Z,10.13
2019-05-10T22:58:56.056Z,10.90
2019-05-10T23:01:25.790Z,11.53
2019-05-10T23:03:55.361Z,10.80
2019-05-10T23:06:24.981Z,10.47
2019-05-10T23:08:54.668Z,10.80
2019-05-10T23:11:25.613Z,10.83
2019-05-10T23:13:55.201Z,10.80
2019-05-10T23:16:24.733Z,10.20
2019-05-10T23:18:54.053Z,10.67
2019-05-10T23:21:23.711Z,11.30
2019-05-10T23:23:53.576Z,10.43
2019-05-10T23:26:24.050Z,11.40
2019-05-10T23:28:53.842Z,11.03
2019-05-10T23:31:24.657Z,10.87
2019-05-10T23:33:54.142Z,11.10
2019-05-10T23:36:23.423Z,10.70
2019-05-10T23:38:52.613Z,12.03
2019-05-10T23:41:21.788Z,11.27
2019-05-10T23:43:51.126Z,10.77
2019-05-10T23:46:20.695Z,9.67
2019-05-10T23:48:49.759Z,11.33
2019-05-10T23:51:18.809Z,10.33
2019-05-10T23:53:47.679Z,11.20
2019-05-10T23:56:16.689Z,11.00
2019-05-10T23:58:45.759Z,10.93
